createdAt,value
2023-06-26T00:00:06.298Z,8.05
2023-06-26T00:02:34.071Z,9.40
2023-06-26T00:05:03.861Z,8.00
2023-06-26T00:07:31.858Z,8.63
2023-06-26T00:10:00.062Z,8.80
2023-06-26T00:12:27.420Z,7.70
2023-06-26T00:14:54.851Z,7.50
2023-06-26T00:17:22.534Z,7.50
2023-06-26T00:19:50.346Z,7.60
2023-06-26T00:22:17.864Z,7.57
2023-06-26T00:24:46.317Z,7.93
2023-06-26T00:27:13.937Z,7.32
2023-06-26T00:29:42.043Z,7.43
2023-06-26T00:32:09.001Z,7.80
2023-06-26T00:34:36.117Z,8.15
2023-06-26T00:37:03.309Z,8.20
2023-06-26T00:39:30.300Z,7.55
2023-06-26T00:41:57.236Z,7.55
2023-06-26T00:44:24.209Z,7.93
2023-06-26T00:46:51.124Z,7.10
2023-06-26T00:49:18.186Z,7.68
2023-06-26T00:51:45.342Z,7.63
2023-06-26T00:54:12.359Z,8.23
2023-06-26T00:56:39.317Z,8.25
2023-06-26T00:59:06.211Z,7.60
2023-06-26T01:01:33.373Z,7.95
2023-06-26T01:04:01.036Z,8.38
2023-06-26T01:06:28.666Z,6.97
2023-06-26T01:08:55.769Z,8.55
2023-06-26T01:11:23.074Z,7.32
2023-06-26T01:13:51.516Z,7.57
2023-06-26T01:16:20.776Z,7.65
2023-06-26T01:18:50.044Z,8.55
2023-06-26T01:21:17.251Z,7.35
2023-06-26T01:23:59.425Z,7.57
2023-06-26T01:26:28.057Z,8.27
2023-06-26T01:28:55.084Z,7.85
2023-06-26T01:31:22.216Z,7.53
2023-06-26T01:33:49.157Z,7.50
2023-06-26T01:36:16.225Z,7.82
2023-06-26T01:38:43.236Z,7.38
2023-06-26T01:41:10.140Z,8.25
2023-06-26T01:43:55.767Z,8.15
2023-06-26T01:46:49.370Z,8.05
2023-06-26T01:49:23.916Z,7.88
2023-06-26T01:51:57.987Z,8.13
2023-06-26T01:54:25.123Z,8.20
2023-06-26T01:56:53.560Z,8.35
2023-06-26T01:59:20.809Z,8.10
2023-06-26T02:01:48.293Z,9.05
2023-06-26T02:04:15.308Z,8.32
2023-06-26T02:06:43.286Z,9.23
2023-06-26T02:09:10.158Z,8.70
2023-06-26T02:11:37.319Z,9.00
2023-06-26T02:14:04.213Z,9.73
2023-06-26T02:16:31.441Z,9.07
2023-06-26T02:18:58.889Z,9.93
2023-06-26T02:21:25.800Z,9.88
2023-06-26T02:23:52.888Z,9.45
2023-06-26T02:26:20.006Z,9.80
2023-06-26T02:28:46.957Z,9.45
2023-06-26T02:31:13.881Z,9.48
2023-06-26T02:33:41.936Z,9.13
2023-06-26T02:36:08.936Z,9.10
2023-06-26T02:38:35.827Z,9.98
2023-06-26T02:41:02.729Z,10.00
2023-06-26T02:43:29.727Z,10.20
2023-06-26T02:45:57.306Z,10.30
2023-06-26T02:48:24.313Z,9.30
2023-06-26T02:50:51.328Z,9.70
2023-06-26T02:53:18.443Z,8.63
2023-06-26T02:55:45.346Z,10.15
2023-06-26T02:58:12.251Z,9.57
2023-06-26T03:00:42.438Z,9.43
2023-06-26T03:03:10.078Z,9.27
2023-06-26T03:05:36.997Z,8.65
2023-06-26T03:08:04.233Z,10.10
2023-06-26T03:10:31.976Z,9.13
2023-06-26T03:12:59.285Z,10.05
2023-06-26T03:15:26.416Z,11.23
2023-06-26T03:17:53.347Z,11.23
2023-06-26T03:20:20.326Z,11.20
2023-06-26T03:22:47.454Z,13.65
2023-06-26T03:25:15.368Z,17.50
2023-06-26T03:27:42.384Z,23.45
2023-06-26T03:30:09.971Z,26.98
2023-06-26T03:32:37.826Z,30.23
2023-06-26T03:35:07.026Z,29.60
2023-06-26T03:37:34.695Z,24.02
2023-06-26T03:40:01.781Z,19.55
2023-06-26T03:42:28.848Z,19.23
2023-06-26T03:44:55.953Z,17.60
2023-06-26T03:47:22.982Z,16.83
2023-06-26T03:49:49.909Z,17.02
2023-06-26T03:52:16.952Z,18.00
2023-06-26T03:54:44.504Z,22.60
2023-06-26T03:57:11.801Z,29.38
2023-06-26T03:59:38.707Z,27.77
2023-06-26T04:02:05.836Z,27.67
2023-06-26T04:04:32.865Z,27.58
2023-06-26T04:07:00.616Z,27.30
2023-06-26T04:09:27.602Z,25.88
2023-06-26T04:11:54.501Z,23.08
2023-06-26T04:14:21.603Z,24.10
2023-06-26T04:16:48.573Z,20.75
2023-06-26T04:19:16.063Z,18.27
2023-06-26T04:21:43.138Z,18.95
2023-06-26T04:24:10.113Z,17.83
2023-06-26T04:26:37.343Z,16.13
2023-06-26T04:29:04.526Z,14.05
2023-06-26T04:31:31.793Z,14.57
2023-06-26T04:34:00.506Z,14.70
2023-06-26T04:36:30.619Z,14.63
2023-06-26T04:38:58.026Z,14.27
2023-06-26T04:41:24.972Z,13.80
2023-06-26T04:43:51.900Z,17.65
2023-06-26T04:46:18.866Z,22.35
2023-06-26T04:48:45.894Z,24.00
2023-06-26T04:51:12.892Z,25.55
2023-06-26T04:53:40.040Z,28.58
2023-06-26T04:56:07.011Z,27.75
2023-06-26T04:58:33.974Z,25.08
2023-06-26T05:01:02.218Z,24.38
2023-06-26T05:03:30.582Z,24.60
2023-06-26T05:05:57.596Z,17.10
2023-06-26T05:08:27.292Z,14.27
2023-06-26T05:11:00.093Z,12.40
2023-06-26T05:13:27.331Z,11.85
2023-06-26T05:15:54.707Z,12.07
2023-06-26T05:18:21.679Z,11.27
2023-06-26T05:20:49.045Z,13.32
2023-06-26T05:23:15.979Z,11.43
2023-06-26T05:25:43.160Z,10.10
2023-06-26T05:28:12.372Z,10.88
2023-06-26T05:30:39.742Z,8.73
2023-06-26T05:33:07.287Z,9.65
2023-06-26T05:35:34.709Z,9.07
2023-06-26T05:38:01.678Z,10.43
2023-06-26T05:40:28.760Z,10.65
2023-06-26T05:42:56.126Z,10.70
2023-06-26T05:45:23.156Z,9.10
2023-06-26T05:47:51.436Z,10.18
2023-06-26T05:50:20.796Z,10.30
2023-06-26T05:52:48.137Z,12.38
2023-06-26T05:55:15.561Z,11.40
2023-06-26T05:57:43.623Z,15.57
2023-06-26T06:00:13.857Z,22.85
2023-06-26T06:02:43.450Z,19.83
2023-06-26T06:05:10.598Z,16.75
2023-06-26T06:07:38.912Z,16.10
2023-06-26T06:10:06.303Z,18.75
2023-06-26T06:12:33.394Z,16.92
2023-06-26T06:15:00.354Z,19.55
2023-06-26T06:17:27.510Z,18.80
2023-06-26T06:19:54.446Z,15.60
2023-06-26T06:22:21.754Z,17.60
2023-06-26T06:24:52.083Z,15.90
2023-06-26T06:27:19.272Z,13.77
2023-06-26T06:29:46.263Z,15.07
2023-06-26T06:32:13.524Z,15.82
2023-06-26T06:34:40.950Z,15.43
2023-06-26T06:37:08.232Z,14.93
2023-06-26T06:39:35.371Z,19.77
2023-06-26T06:42:02.273Z,21.70
2023-06-26T06:44:31.678Z,23.98
2023-06-26T06:46:58.810Z,22.17
2023-06-26T06:49:25.716Z,22.77
2023-06-26T06:51:52.720Z,20.63
2023-06-26T06:54:20.883Z,17.85
2023-06-26T06:56:47.859Z,17.40
2023-06-26T06:59:14.782Z,15.68
2023-06-26T07:01:41.871Z,17.25
2023-06-26T07:04:08.947Z,14.73
2023-06-26T07:06:36.173Z,12.98
2023-06-26T07:09:03.851Z,14.00
2023-06-26T07:11:30.829Z,13.23
2023-06-26T07:13:57.974Z,13.38
2023-06-26T07:16:25.016Z,12.68
2023-06-26T07:18:53.221Z,13.60
2023-06-26T07:21:20.470Z,12.40
2023-06-26T07:23:47.677Z,13.50
2023-06-26T07:26:15.813Z,14.25
2023-06-26T07:28:42.996Z,14.88
2023-06-26T07:31:10.534Z,12.77
2023-06-26T07:33:37.562Z,14.18
2023-06-26T07:36:04.470Z,12.82
2023-06-26T07:38:31.526Z,14.13
2023-06-26T07:40:58.554Z,13.07
2023-06-26T07:43:25.825Z,12.70
2023-06-26T07:45:54.498Z,12.80
2023-06-26T07:48:21.588Z,14.75
2023-06-26T07:50:48.539Z,14.02
2023-06-26T07:53:15.459Z,13.13
2023-06-26T07:55:42.376Z,15.70
2023-06-26T07:58:09.639Z,18.23
2023-06-26T08:00:37.220Z,15.85
2023-06-26T08:03:04.860Z,14.43
2023-06-26T08:05:33.044Z,12.10
2023-06-26T08:08:01.142Z,11.55
2023-06-26T08:10:28.289Z,10.43
2023-06-26T08:12:56.631Z,10.82
2023-06-26T08:15:23.659Z,11.48
2023-06-26T08:17:51.951Z,10.95
2023-06-26T08:20:20.639Z,10.05
2023-06-26T08:22:49.122Z,9.70
2023-06-26T08:25:16.127Z,9.77
2023-06-26T08:27:43.790Z,9.63
2023-06-26T08:30:11.531Z,9.93
2023-06-26T08:32:38.711Z,9.18
2023-06-26T08:35:07.358Z,9.95
2023-06-26T08:37:34.249Z,9.32
2023-06-26T08:40:01.592Z,9.10
2023-06-26T08:42:28.635Z,9.00
2023-06-26T08:45:01.850Z,8.27
2023-06-26T08:47:29.973Z,8.25
2023-06-26T08:50:11.476Z,8.00
2023-06-26T08:52:45.304Z,8.45
2023-06-26T08:55:12.537Z,7.63
2023-06-26T08:57:39.796Z,8.23
2023-06-26T09:00:09.596Z,7.90
2023-06-26T09:02:37.926Z,8.05
2023-06-26T09:05:05.132Z,9.18
2023-06-26T09:07:32.124Z,9.25
2023-06-26T09:09:59.500Z,9.90
2023-06-26T09:12:28.101Z,11.07
2023-06-26T09:14:57.060Z,11.05
2023-06-26T09:17:32.516Z,11.02
2023-06-26T09:19:59.575Z,10.32
2023-06-26T09:22:26.494Z,10.10
2023-06-26T09:24:53.953Z,8.35
2023-06-26T09:27:20.906Z,7.32
2023-06-26T09:29:48.384Z,6.93
2023-06-26T09:32:15.561Z,6.60
2023-06-26T09:34:42.875Z,6.65
2023-06-26T09:37:10.001Z,6.60
2023-06-26T09:39:37.716Z,6.38
2023-06-26T09:42:07.562Z,7.53
2023-06-26T09:44:35.160Z,6.00
2023-06-26T09:47:05.361Z,6.57
2023-06-26T09:49:32.388Z,5.70
2023-06-26T09:52:01.323Z,5.57
2023-06-26T09:54:30.228Z,5.15
2023-06-26T09:57:07.829Z,4.70
2023-06-26T09:59:36.174Z,6.07
2023-06-26T10:02:03.480Z,10.93
2023-06-26T10:04:30.781Z,5.93
2023-06-26T10:06:58.277Z,8.20
2023-06-26T10:09:29.174Z,8.15
2023-06-26T10:12:13.822Z,9.93
2023-06-26T10:14:40.788Z,9.73
2023-06-26T10:17:15.033Z,5.82
2023-06-26T10:19:44.721Z,7.60
2023-06-26T10:22:21.784Z,5.43
2023-06-26T10:24:49.735Z,7.97
2023-06-26T10:27:19.739Z,6.10
2023-06-26T10:29:49.663Z,7.00
2023-06-26T10:32:18.427Z,8.52
2023-06-26T10:34:45.693Z,5.93
2023-06-26T10:37:13.126Z,5.43
2023-06-26T10:39:50.817Z,6.25
2023-06-26T10:42:22.400Z,4.10
2023-06-26T10:44:49.497Z,3.60
2023-06-26T10:47:32.950Z,5.32
2023-06-26T10:50:22.512Z,4.63
2023-06-26T10:53:26.454Z,5.03
2023-06-26T10:55:58.698Z,5.07
2023-06-26T10:58:32.917Z,4.72
2023-06-26T11:01:13.482Z,4.35
2023-06-26T11:04:07.734Z,6.10
2023-06-26T11:06:35.814Z,5.50
2023-06-26T11:09:05.788Z,6.47
2023-06-26T11:12:05.958Z,6.07
2023-06-26T11:14:33.602Z,4.30
2023-06-26T11:17:00.669Z,6.68
2023-06-26T11:19:29.111Z,6.10
2023-06-26T11:22:01.390Z,9.35
2023-06-26T11:24:28.615Z,7.93
2023-06-26T11:26:55.655Z,4.93
2023-06-26T11:29:22.790Z,6.93
2023-06-26T11:31:50.048Z,5.13
2023-06-26T11:34:17.166Z,5.78
2023-06-26T11:36:47.265Z,5.53
2023-06-26T11:39:14.224Z,6.80
2023-06-26T11:41:42.752Z,7.60
2023-06-26T11:44:11.124Z,11.73
2023-06-26T11:46:38.946Z,10.85
2023-06-26T11:49:06.752Z,9.35
2023-06-26T11:51:34.255Z,4.68
2023-06-26T11:54:05.215Z,11.43
2023-06-26T11:56:32.836Z,8.32
2023-06-26T11:59:04.196Z,11.55
2023-06-26T12:01:35.137Z,12.63
2023-06-26T12:04:06.798Z,9.25
2023-06-26T12:06:36.727Z,6.80
2023-06-26T12:09:06.328Z,15.75
2023-06-26T12:11:34.412Z,9.98
2023-06-26T12:14:01.663Z,8.65
2023-06-26T12:16:30.550Z,11.48
2023-06-26T12:19:04.277Z,10.80
2023-06-26T12:21:37.667Z,6.35
2023-06-26T12:24:06.250Z,9.07
2023-06-26T12:26:39.229Z,8.95
2023-06-26T12:29:08.177Z,5.45
2023-06-26T12:31:37.194Z,4.28
2023-06-26T12:34:10.046Z,7.75
2023-06-26T12:36:45.469Z,7.20
2023-06-26T12:39:16.292Z,7.43
2023-06-26T12:44:24.024Z,10.07
2023-06-26T12:46:54.263Z,6.82
2023-06-26T12:49:31.306Z,6.97
2023-06-26T12:52:00.336Z,9.40
2023-06-26T12:54:27.375Z,5.45
2023-06-26T12:56:54.970Z,6.28
2023-06-26T12:59:22.718Z,4.85
2023-06-26T13:01:49.971Z,5.80
2023-06-26T13:04:17.349Z,6.20
2023-06-26T13:06:44.490Z,15.70
2023-06-26T13:09:11.811Z,8.40
2023-06-26T13:11:39.134Z,14.00
2023-06-26T13:14:11.133Z,10.55
2023-06-26T13:16:40.827Z,10.65
2023-06-26T13:19:08.373Z,12.07
2023-06-26T13:21:35.937Z,6.47
2023-06-26T13:24:04.999Z,6.75
2023-06-26T13:26:37.436Z,10.75
2023-06-26T13:29:05.969Z,8.05
2023-06-26T13:31:34.030Z,8.60
2023-06-26T13:34:04.843Z,7.53
2023-06-26T13:36:35.623Z,11.95
2023-06-26T13:39:04.240Z,13.70
2023-06-26T13:41:31.749Z,15.88
2023-06-26T13:44:03.070Z,15.27
2023-06-26T13:46:45.711Z,14.52
2023-06-26T13:49:13.005Z,15.65
2023-06-26T13:51:46.693Z,15.07
2023-06-26T13:54:13.915Z,15.05
2023-06-26T13:56:41.239Z,12.73
2023-06-26T13:59:08.642Z,10.88
2023-06-26T14:01:35.797Z,9.00
2023-06-26T14:04:03.165Z,10.77
2023-06-26T14:06:31.310Z,15.60
2023-06-26T14:08:58.730Z,13.55
2023-06-26T14:11:27.538Z,10.02
2023-06-26T14:13:54.676Z,12.75
2023-06-26T14:16:21.990Z,9.30
2023-06-26T14:18:49.562Z,11.10
2023-06-26T14:21:16.992Z,11.57
2023-06-26T14:23:44.067Z,9.82
2023-06-26T14:26:11.597Z,12.52
2023-06-26T14:28:39.630Z,15.45
2023-06-26T14:31:06.813Z,11.73
2023-06-26T14:33:33.887Z,12.05
2023-06-26T14:36:00.951Z,12.57
2023-06-26T14:38:27.877Z,11.80
2023-06-26T14:40:55.469Z,11.30
2023-06-26T14:43:23.201Z,9.05
2023-06-26T14:45:51.233Z,7.97
2023-06-26T14:48:20.465Z,7.22
2023-06-26T14:50:47.359Z,6.80
2023-06-26T14:53:14.471Z,6.82
2023-06-26T14:55:41.434Z,6.85
2023-06-26T14:58:08.399Z,6.32
2023-06-26T15:00:35.379Z,7.70
2023-06-26T15:03:02.462Z,8.00
2023-06-26T15:05:29.682Z,6.30
2023-06-26T15:07:56.724Z,7.07
2023-06-26T15:10:24.465Z,8.80
2023-06-26T15:12:54.134Z,8.55
2023-06-26T15:15:21.138Z,8.35
2023-06-26T15:17:48.160Z,6.88
2023-06-26T15:20:15.223Z,9.13
2023-06-26T15:22:44.568Z,5.85
2023-06-26T15:25:11.940Z,9.93
2023-06-26T15:27:38.923Z,7.28
2023-06-26T15:30:07.055Z,9.38
2023-06-26T15:32:34.609Z,5.80
2023-06-26T15:35:01.769Z,8.65
2023-06-26T15:37:29.215Z,6.80
2023-06-26T15:39:56.139Z,6.75
2023-06-26T15:42:27.737Z,7.30
2023-06-26T15:44:54.699Z,9.07
2023-06-26T15:47:21.692Z,7.20
2023-06-26T15:49:48.659Z,7.25
2023-06-26T15:52:16.086Z,7.85
2023-06-26T15:54:43.169Z,5.20
2023-06-26T15:57:10.190Z,4.82
2023-06-26T15:59:37.408Z,5.60
2023-06-26T16:02:04.630Z,5.40
2023-06-26T16:04:34.013Z,5.55
2023-06-26T16:07:01.129Z,10.23
2023-06-26T16:09:29.674Z,10.55
2023-06-26T16:11:56.657Z,10.25
2023-06-26T16:14:23.848Z,7.82
2023-06-26T16:16:50.750Z,10.70
2023-06-26T16:19:17.614Z,8.40
2023-06-26T16:21:44.480Z,5.30
2023-06-26T16:24:11.379Z,6.32
2023-06-26T16:26:38.476Z,6.97
2023-06-26T16:29:05.464Z,6.70
2023-06-26T16:31:33.386Z,5.72
2023-06-26T16:34:01.270Z,7.28
2023-06-26T16:36:28.465Z,8.65
2023-06-26T16:38:55.445Z,5.57
2023-06-26T16:41:22.447Z,7.45
2023-06-26T16:43:49.426Z,7.95
2023-06-26T16:46:16.635Z,7.07
2023-06-26T16:48:43.612Z,8.77
2023-06-26T16:51:10.590Z,7.07
2023-06-26T16:53:38.133Z,6.32
2023-06-26T16:56:05.153Z,4.72
2023-06-26T16:58:32.407Z,6.22
2023-06-26T17:01:00.972Z,5.03
2023-06-26T17:03:29.846Z,4.60
2023-06-26T17:05:56.847Z,4.53
2023-06-26T17:08:23.841Z,5.90
2023-06-26T17:10:50.753Z,6.75
2023-06-26T17:13:17.824Z,7.22
2023-06-26T17:15:44.769Z,4.53
2023-06-26T17:18:12.227Z,5.32
2023-06-26T17:20:39.606Z,3.08
2023-06-26T17:23:06.720Z,6.75
2023-06-26T17:25:35.045Z,5.05
2023-06-26T17:28:01.990Z,3.83
2023-06-26T17:30:29.520Z,3.00
2023-06-26T17:32:58.889Z,4.85
2023-06-26T17:35:26.421Z,2.63
2023-06-26T17:37:53.525Z,2.67
2023-06-26T17:40:20.735Z,5.25
2023-06-26T17:42:48.050Z,2.72
2023-06-26T17:45:16.559Z,2.40
2023-06-26T17:47:44.228Z,2.25
2023-06-26T17:50:13.762Z,5.15
2023-06-26T17:52:42.770Z,2.70
2023-06-26T17:55:10.164Z,2.95
2023-06-26T17:57:40.068Z,2.42
2023-06-26T18:00:09.729Z,3.38
2023-06-26T18:02:40.362Z,2.95
2023-06-26T18:05:08.059Z,1.90
2023-06-26T18:07:39.789Z,2.83
2023-06-26T18:10:14.278Z,3.38
2023-06-26T18:12:42.714Z,4.00
2023-06-26T18:15:10.367Z,2.45
2023-06-26T18:17:38.093Z,2.97
2023-06-26T18:20:05.831Z,2.20
2023-06-26T18:22:34.252Z,2.13
2023-06-26T18:25:01.533Z,3.55
2023-06-26T18:27:35.122Z,2.00
2023-06-26T18:30:02.446Z,2.33
2023-06-26T18:32:29.787Z,3.17
2023-06-26T18:34:56.770Z,2.60
2023-06-26T18:37:23.842Z,2.88
2023-06-26T18:39:50.835Z,2.25
2023-06-26T18:42:17.784Z,2.25
2023-06-26T18:44:44.687Z,1.63
2023-06-26T18:47:12.423Z,2.03
2023-06-26T18:49:41.084Z,2.10
2023-06-26T18:52:07.989Z,2.33
2023-06-26T18:54:35.792Z,2.30
2023-06-26T18:57:02.825Z,2.90
2023-06-26T18:59:30.203Z,2.35
2023-06-26T19:01:57.127Z,2.70
2023-06-26T19:04:25.528Z,3.03
2023-06-26T19:06:54.098Z,5.35
2023-06-26T19:09:21.591Z,2.70
2023-06-26T19:11:49.253Z,2.85
2023-06-26T19:14:17.067Z,2.90
2023-06-26T19:16:45.072Z,4.75
2023-06-26T19:19:13.984Z,4.63
2023-06-26T19:21:44.327Z,2.65
2023-06-26T19:24:11.419Z,3.03
2023-06-26T19:26:38.364Z,2.97
2023-06-26T19:29:07.926Z,3.05
2023-06-26T19:31:35.232Z,3.67
2023-06-26T19:34:02.184Z,3.78
2023-06-26T19:36:29.423Z,3.85
2023-06-26T19:38:56.324Z,4.28
2023-06-26T19:41:23.222Z,3.78
2023-06-26T19:43:50.211Z,3.83
2023-06-26T19:46:18.732Z,3.83
2023-06-26T19:48:45.840Z,4.30
2023-06-26T19:51:12.849Z,4.03
2023-06-26T19:53:39.932Z,4.45
2023-06-26T19:56:06.937Z,4.72
2023-06-26T19:58:35.027Z,3.70
2023-06-26T20:01:02.238Z,3.70
2023-06-26T20:03:30.892Z,4.40
2023-06-26T20:05:58.161Z,4.15
2023-06-26T20:08:25.921Z,5.20
2023-06-26T20:10:52.896Z,5.68
2023-06-26T20:13:19.898Z,5.78
2023-06-26T20:15:47.041Z,6.30
2023-06-26T20:18:14.348Z,6.35
2023-06-26T20:20:41.918Z,7.45
2023-06-26T20:23:09.467Z,5.95
2023-06-26T20:25:39.816Z,5.80
2023-06-26T20:28:07.068Z,5.13
2023-06-26T20:30:34.236Z,2.83
2023-06-26T20:33:01.369Z,2.80
2023-06-26T20:35:28.721Z,2.28
2023-06-26T20:37:56.519Z,2.33
2023-06-26T20:40:24.224Z,2.85
2023-06-26T20:42:51.657Z,3.42
2023-06-26T20:45:19.380Z,3.90
2023-06-26T20:47:46.761Z,4.68
2023-06-26T20:50:14.447Z,4.10
2023-06-26T20:52:43.197Z,3.08
2023-06-26T20:55:14.382Z,4.82
2023-06-26T20:57:41.791Z,4.50
2023-06-26T21:00:10.003Z,3.83
2023-06-26T21:02:37.454Z,3.50
2023-06-26T21:05:04.667Z,3.92
2023-06-26T21:07:31.924Z,4.20
2023-06-26T21:10:00.763Z,4.28
2023-06-26T21:12:28.438Z,3.97
2023-06-26T21:17:22.394Z,4.80
2023-06-26T21:19:49.452Z,3.45
2023-06-26T21:22:19.130Z,4.57
2023-06-26T21:24:46.570Z,4.20
2023-06-26T21:27:13.446Z,3.10
2023-06-26T21:29:40.473Z,2.85
2023-06-26T21:32:07.930Z,2.60
2023-06-26T21:34:35.063Z,4.05
2023-06-26T21:37:02.303Z,4.10
2023-06-26T21:39:29.735Z,4.68
2023-06-26T21:41:56.695Z,5.53
2023-06-26T21:44:23.663Z,9.32
2023-06-26T21:46:51.040Z,10.43
2023-06-26T21:49:18.386Z,10.93
2023-06-26T21:51:45.348Z,12.02
2023-06-26T21:54:12.248Z,13.75
2023-06-26T21:56:39.488Z,14.60
2023-06-26T21:59:06.414Z,14.13
2023-06-26T22:01:33.453Z,15.10
2023-06-26T22:04:00.389Z,16.77
2023-06-26T22:06:27.276Z,16.95
2023-06-26T22:08:54.305Z,16.52
2023-06-26T22:11:21.225Z,15.93
2023-06-26T22:13:48.262Z,16.13
2023-06-26T22:16:15.201Z,15.20
2023-06-26T22:18:42.546Z,15.65
2023-06-26T22:21:09.593Z,12.02
2023-06-26T22:23:36.744Z,10.75
2023-06-26T22:26:03.901Z,14.52
2023-06-26T22:28:30.987Z,10.85
2023-06-26T22:30:59.013Z,6.97
2023-06-26T22:33:26.587Z,5.32
2023-06-26T22:35:53.784Z,9.07
2023-06-26T22:38:20.811Z,6.90
2023-06-26T22:40:47.956Z,6.35
2023-06-26T22:43:14.925Z,10.75
2023-06-26T22:45:42.523Z,11.68
2023-06-26T22:48:12.006Z,10.82
2023-06-26T22:50:39.884Z,8.95
2023-06-26T22:53:08.713Z,5.15
2023-06-26T22:55:35.901Z,2.83
2023-06-26T22:58:02.894Z,2.33
2023-06-26T23:00:29.973Z,1.50
2023-06-26T23:02:57.024Z,1.50
2023-06-26T23:05:24.138Z,1.13
2023-06-26T23:07:51.820Z,1.70
2023-06-26T23:10:18.810Z,1.70
2023-06-26T23:12:46.789Z,2.03
2023-06-26T23:15:13.702Z,2.30
2023-06-26T23:17:42.368Z,3.25
2023-06-26T23:20:11.048Z,4.18
2023-06-26T23:22:38.043Z,4.40
2023-06-26T23:25:05.711Z,4.50
2023-06-26T23:27:32.849Z,6.60
2023-06-26T23:29:59.859Z,5.30
2023-06-26T23:32:26.761Z,6.00
2023-06-26T23:34:54.003Z,10.43
2023-06-26T23:37:26.242Z,9.77
2023-06-26T23:39:53.731Z,10.63
2023-06-26T23:42:20.997Z,6.93
2023-06-26T23:44:51.555Z,5.30
2023-06-26T23:47:19.280Z,3.28
2023-06-26T23:49:46.526Z,2.50
2023-06-26T23:52:13.489Z,3.42
2023-06-26T23:54:40.628Z,2.90
2023-06-26T23:57:07.878Z,3.78
2023-06-26T23:59:34.811Z,4.15
